createdAt,value
2022-12-11T00:02:24.561Z,90.81
2022-12-11T00:05:26.152Z,91.46
2022-12-11T00:08:27.723Z,91.27
2022-12-11T00:11:29.325Z,91.57
2022-12-11T00:14:31.910Z,91.41
2022-12-11T00:17:33.472Z,91.10
2022-12-11T00:20:35.535Z,91.20
2022-12-11T00:23:38.621Z,91.02
2022-12-11T00:26:40.250Z,91.09
2022-12-11T00:29:41.786Z,91.35
2022-12-11T00:32:44.138Z,90.95
2022-12-11T00:35:47.154Z,91.00
2022-12-11T00:38:49.431Z,90.80
2022-12-11T00:41:50.925Z,90.85
2022-12-11T00:44:52.487Z,91.18
2022-12-11T00:47:54.421Z,91.43
2022-12-11T00:50:55.974Z,90.97
2022-12-11T00:53:57.518Z,91.30
2022-12-11T00:56:59.195Z,90.85
2022-12-11T01:00:00.777Z,91.28
2022-12-11T01:03:02.665Z,91.94
2022-12-11T01:06:05.250Z,91.99
2022-12-11T01:09:25.641Z,91.93
2022-12-11T01:12:28.603Z,91.55
2022-12-11T01:15:41.526Z,91.27
2022-12-11T01:18:43.622Z,91.32
2022-12-11T01:21:45.144Z,91.83
2022-12-11T01:24:46.710Z,91.40
2022-12-11T01:27:50.790Z,91.37
2022-12-11T01:30:52.415Z,91.60
2022-12-11T01:33:55.466Z,91.92
2022-12-11T01:36:57.141Z,91.94
2022-12-11T01:39:58.771Z,91.69
2022-12-11T01:43:00.305Z,92.22
2022-12-11T01:46:01.936Z,91.85
2022-12-11T01:49:15.300Z,92.30
2022-12-11T01:52:21.342Z,92.13
2022-12-11T01:55:23.332Z,91.88
2022-12-11T01:58:29.727Z,92.53
2022-12-11T02:01:36.869Z,92.05
2022-12-11T02:04:40.079Z,91.92
2022-12-11T02:07:48.668Z,91.73
2022-12-11T02:11:04.187Z,91.87
2022-12-11T02:14:17.795Z,91.64
2022-12-11T02:17:25.993Z,91.98
2022-12-11T02:20:37.575Z,91.81
2022-12-11T02:23:47.214Z,91.91
2022-12-11T02:27:18.208Z,91.76
2022-12-11T02:30:19.904Z,91.66
2022-12-11T02:33:29.891Z,91.77
2022-12-11T02:36:35.809Z,91.73
2022-12-11T02:39:40.541Z,91.84
2022-12-11T02:42:44.316Z,92.40
2022-12-11T02:45:46.914Z,91.87
2022-12-11T02:48:51.280Z,91.99
2022-12-11T02:51:56.423Z,92.21
2022-12-11T02:55:00.903Z,92.24
2022-12-11T02:58:08.999Z,92.32
2022-12-11T03:01:10.599Z,91.92
2022-12-11T03:04:12.253Z,91.90
2022-12-11T03:07:27.986Z,91.70
2022-12-11T03:10:29.663Z,91.76
2022-12-11T03:13:31.618Z,92.45
2022-12-11T03:16:36.947Z,92.22
2022-12-11T03:19:50.390Z,91.57
2022-12-11T03:23:03.194Z,91.88
2022-12-11T03:26:08.912Z,92.49
2022-12-11T03:29:19.242Z,92.12
2022-12-11T03:32:25.603Z,91.83
2022-12-11T03:35:44.036Z,92.27
2022-12-11T03:39:15.272Z,92.03
2022-12-11T03:42:19.174Z,91.89
2022-12-11T03:45:22.585Z,91.37
2022-12-11T03:48:30.559Z,91.74
2022-12-11T03:51:34.079Z,91.73
2022-12-11T03:54:36.592Z,91.36
2022-12-11T03:57:38.402Z,90.93
2022-12-11T04:00:39.982Z,91.09
2022-12-11T04:03:41.574Z,90.90
2022-12-11T04:06:43.161Z,89.65
2022-12-11T04:09:44.692Z,89.88
2022-12-11T04:12:46.245Z,89.58
2022-12-11T04:15:47.799Z,89.41
2022-12-11T04:19:07.809Z,89.14
2022-12-11T04:22:32.101Z,89.33
2022-12-11T04:25:33.652Z,89.65
2022-12-11T04:28:35.856Z,89.12
2022-12-11T04:31:37.415Z,89.13
2022-12-11T04:34:40.734Z,89.39
2022-12-11T04:37:42.655Z,88.27
2022-12-11T04:40:44.590Z,88.04
2022-12-11T04:43:46.233Z,87.47
2022-12-11T04:46:47.840Z,87.13
2022-12-11T04:49:49.392Z,86.47
2022-12-11T04:52:50.950Z,87.09
2022-12-11T04:55:52.586Z,87.08
2022-12-11T04:58:54.111Z,87.60
2022-12-11T05:01:55.718Z,87.88
2022-12-11T05:04:57.287Z,88.31
2022-12-11T05:07:58.871Z,87.83
2022-12-11T05:11:03.278Z,87.70
2022-12-11T05:14:05.433Z,88.34
2022-12-11T05:17:06.965Z,88.51
2022-12-11T05:20:09.657Z,88.20
2022-12-11T05:23:11.477Z,88.68
2022-12-11T05:26:17.052Z,88.45
2022-12-11T05:29:18.623Z,89.19
2022-12-11T05:32:20.150Z,88.73
2022-12-11T05:35:21.978Z,88.80
2022-12-11T05:38:24.456Z,89.05
2022-12-11T05:41:29.855Z,89.43
2022-12-11T05:44:31.362Z,89.40
2022-12-11T05:47:32.978Z,88.51
2022-12-11T05:50:34.533Z,89.19
2022-12-11T05:53:37.511Z,89.33
2022-12-11T05:56:39.076Z,89.20
2022-12-11T05:59:41.322Z,89.05
2022-12-11T06:02:43.039Z,89.31
2022-12-11T06:05:45.112Z,89.13
2022-12-11T06:08:49.885Z,89.22
2022-12-11T06:11:51.434Z,89.19
2022-12-11T06:14:53.734Z,89.49
2022-12-11T06:17:55.373Z,89.50
2022-12-11T06:20:57.050Z,89.61
2022-12-11T06:24:01.099Z,89.94
2022-12-11T06:27:02.678Z,89.51
2022-12-11T06:30:04.709Z,89.91
2022-12-11T06:33:06.853Z,89.47
2022-12-11T06:36:16.515Z,89.56
2022-12-11T06:39:18.062Z,89.46
2022-12-11T06:42:19.618Z,89.75
2022-12-11T06:45:21.168Z,89.07
2022-12-11T06:48:22.720Z,89.39
2022-12-11T06:51:24.308Z,89.84
2022-12-11T06:54:27.446Z,90.17
2022-12-11T06:57:29.096Z,90.17
2022-12-11T07:00:31.141Z,89.98
2022-12-11T07:03:33.533Z,89.76
2022-12-11T07:06:35.592Z,90.17
2022-12-11T07:09:39.968Z,90.08
2022-12-11T07:12:41.530Z,90.15
2022-12-11T07:15:43.084Z,90.43
2022-12-11T07:18:48.328Z,90.04
2022-12-11T07:21:50.079Z,90.62
2022-12-11T07:24:51.640Z,90.29
2022-12-11T07:27:53.193Z,90.58
2022-12-11T07:31:05.714Z,90.63
2022-12-11T07:34:07.659Z,90.71
2022-12-11T07:37:09.209Z,90.54
2022-12-11T07:40:11.095Z,90.50
2022-12-11T07:43:12.726Z,90.90
2022-12-11T07:46:21.601Z,91.37
2022-12-11T07:49:23.171Z,91.12
2022-12-11T07:52:24.761Z,90.33
2022-12-11T07:55:26.321Z,90.17
2022-12-11T07:58:28.563Z,90.17
2022-12-11T08:01:31.692Z,89.96
2022-12-11T08:04:33.641Z,90.14
2022-12-11T08:07:35.849Z,89.62
2022-12-11T08:10:37.430Z,90.05
2022-12-11T08:13:40.253Z,89.97
2022-12-11T08:16:44.133Z,89.98
2022-12-11T08:19:45.762Z,89.22
2022-12-11T08:22:47.421Z,89.74
2022-12-11T08:25:48.978Z,90.12
2022-12-11T08:28:51.101Z,89.45
2022-12-11T08:31:52.621Z,89.78
2022-12-11T08:34:54.215Z,89.74
2022-12-11T08:37:55.767Z,90.28
2022-12-11T08:40:57.438Z,90.34
2022-12-11T08:44:00.420Z,89.86
2022-12-11T08:47:02.077Z,89.54
2022-12-11T08:50:04.446Z,88.95
2022-12-11T08:53:06.004Z,88.88
2022-12-11T08:56:10.948Z,88.46
2022-12-11T08:59:12.604Z,88.39
2022-12-11T09:02:14.412Z,87.77
2022-12-11T09:05:16.215Z,87.73
2022-12-11T09:08:18.035Z,88.34
2022-12-11T09:11:25.739Z,88.16
2022-12-11T09:14:27.774Z,87.83
2022-12-11T09:17:29.377Z,87.70
2022-12-11T09:20:30.904Z,88.07
2022-12-11T09:23:33.316Z,87.77
2022-12-11T09:26:34.929Z,87.34
2022-12-11T09:29:36.478Z,87.25
2022-12-11T09:32:38.007Z,87.39
2022-12-11T09:35:39.626Z,86.98
2022-12-11T09:38:43.999Z,86.88
2022-12-11T09:41:53.049Z,86.55
2022-12-11T09:44:58.811Z,86.81
2022-12-11T09:48:01.962Z,86.49
2022-12-11T09:51:15.494Z,86.12
2022-12-11T09:54:17.976Z,86.25
2022-12-11T09:57:38.000Z,85.47
2022-12-11T10:01:14.913Z,85.66
2022-12-11T10:05:00.377Z,85.66
2022-12-11T10:08:20.503Z,86.11
2022-12-11T10:11:45.694Z,86.02
2022-12-11T10:15:12.501Z,85.79
2022-12-11T10:18:18.078Z,85.77
2022-12-11T10:21:20.234Z,85.60
2022-12-11T10:25:12.593Z,85.03
2022-12-11T10:28:15.337Z,85.30
2022-12-11T10:31:30.775Z,84.71
2022-12-11T10:34:40.066Z,84.36
2022-12-11T10:37:41.645Z,84.47
2022-12-11T10:40:47.068Z,84.61
2022-12-11T10:43:50.451Z,84.52
2022-12-11T10:47:15.395Z,84.25
2022-12-11T10:50:25.956Z,83.78
2022-12-11T10:53:29.199Z,84.07
2022-12-11T10:56:34.015Z,84.06
2022-12-11T10:59:45.134Z,83.45
2022-12-11T11:02:46.759Z,82.93
2022-12-11T11:05:50.573Z,81.81
2022-12-11T11:08:55.127Z,82.31
2022-12-11T11:11:56.784Z,82.10
2022-12-11T11:15:04.123Z,81.99
2022-12-11T11:18:23.871Z,81.08
2022-12-11T11:21:26.509Z,81.26
2022-12-11T11:24:34.897Z,81.71
2022-12-11T11:28:05.590Z,79.89
2022-12-11T11:31:10.167Z,79.70
2022-12-11T11:34:21.024Z,80.10
2022-12-11T11:37:30.399Z,79.33
2022-12-11T11:40:38.855Z,80.07
2022-12-11T11:43:47.709Z,80.09
2022-12-11T11:46:59.143Z,80.09
2022-12-11T11:50:21.283Z,79.98
2022-12-11T11:53:30.449Z,80.27
2022-12-11T11:56:37.422Z,80.81
2022-12-11T11:59:49.237Z,80.24
2022-12-11T12:02:55.923Z,80.22
2022-12-11T12:06:22.199Z,80.92
2022-12-11T12:09:43.531Z,80.82
2022-12-11T12:12:48.108Z,81.18
2022-12-11T12:16:01.355Z,81.35
2022-12-11T12:19:08.877Z,81.04
2022-12-11T12:22:46.729Z,80.87
2022-12-11T12:26:06.897Z,81.75
2022-12-11T12:29:35.185Z,81.52
2022-12-11T12:32:55.256Z,80.97
2022-12-11T12:36:16.029Z,81.27
2022-12-11T12:39:28.280Z,81.08
2022-12-11T12:42:35.969Z,80.48
2022-12-11T12:45:55.127Z,81.03
2022-12-11T12:49:02.371Z,81.76
2022-12-11T12:52:14.964Z,80.44
2022-12-11T12:55:28.950Z,80.47
2022-12-11T12:58:39.853Z,80.83
2022-12-11T13:01:48.311Z,80.74
2022-12-11T13:05:07.489Z,80.94
2022-12-11T13:08:10.922Z,80.99
2022-12-11T13:11:17.118Z,81.07
2022-12-11T13:14:18.854Z,81.75
2022-12-11T13:17:20.316Z,81.55
2022-12-11T13:20:25.066Z,82.22
2022-12-11T13:23:32.435Z,81.84
2022-12-11T13:26:34.364Z,80.57
2022-12-11T13:29:41.706Z,80.27
2022-12-11T13:32:54.981Z,80.74
2022-12-11T13:36:17.774Z,80.86
2022-12-11T13:39:30.602Z,79.93
2022-12-11T13:42:36.110Z,79.68
2022-12-11T13:45:48.836Z,80.09
2022-12-11T13:48:57.285Z,79.73
2022-12-11T13:52:00.218Z,80.26
2022-12-11T13:55:02.306Z,79.90
2022-12-11T13:58:03.884Z,80.24
2022-12-11T14:01:17.024Z,79.99
2022-12-11T14:04:21.855Z,79.43
2022-12-11T14:07:28.845Z,80.06
2022-12-11T14:10:35.187Z,79.30
2022-12-11T14:13:40.420Z,79.84
2022-12-11T14:16:42.501Z,79.48
2022-12-11T14:19:48.561Z,79.56
2022-12-11T14:22:50.760Z,79.98
2022-12-11T14:26:01.335Z,80.21
2022-12-11T14:29:03.118Z,79.53
2022-12-11T14:32:07.354Z,79.69
2022-12-11T14:35:26.453Z,79.67
2022-12-11T14:38:43.062Z,79.59
2022-12-11T14:41:57.379Z,79.97
2022-12-11T14:45:28.078Z,79.86
2022-12-11T14:48:36.051Z,79.65
2022-12-11T14:51:41.034Z,80.31
2022-12-11T14:54:51.213Z,80.48
2022-12-11T14:58:07.591Z,80.36
2022-12-11T15:01:28.292Z,80.93
2022-12-11T15:04:32.510Z,81.31
2022-12-11T15:07:34.263Z,81.35
2022-12-11T15:10:41.131Z,80.93
2022-12-11T15:13:58.623Z,81.05
2022-12-11T15:17:00.501Z,81.44
2022-12-11T15:20:22.549Z,81.90
2022-12-11T15:23:24.199Z,81.92
2022-12-11T15:26:44.233Z,81.77
2022-12-11T15:29:45.859Z,81.44
2022-12-11T15:32:48.752Z,81.99
2022-12-11T15:36:07.341Z,82.04
2022-12-11T15:39:09.430Z,82.77
2022-12-11T15:42:15.052Z,82.81
2022-12-11T15:45:22.208Z,82.88
2022-12-11T15:48:24.409Z,83.10
2022-12-11T15:51:27.440Z,82.88
2022-12-11T15:54:29.089Z,82.89
2022-12-11T15:57:30.826Z,83.69
2022-12-11T16:00:32.505Z,83.95
2022-12-11T16:03:34.061Z,83.58
2022-12-11T16:06:35.747Z,83.52
2022-12-11T16:09:37.345Z,83.58
2022-12-11T16:12:39.856Z,83.60
2022-12-11T16:15:47.742Z,83.07
2022-12-11T16:18:49.873Z,83.23
2022-12-11T16:21:52.534Z,83.25
2022-12-11T16:24:55.081Z,83.60
2022-12-11T16:27:58.074Z,83.82
2022-12-11T16:30:59.668Z,83.62
2022-12-11T16:34:01.284Z,83.68
2022-12-11T16:37:03.666Z,83.48
2022-12-11T16:40:06.653Z,83.20
2022-12-11T16:43:08.443Z,83.58
2022-12-11T16:46:10.081Z,83.21
2022-12-11T16:49:11.700Z,82.88
2022-12-11T16:52:17.578Z,82.99
2022-12-11T16:55:22.187Z,82.81
2022-12-11T16:58:23.847Z,82.94
2022-12-11T17:01:25.810Z,83.10
2022-12-11T17:04:28.629Z,83.24
2022-12-11T17:07:32.021Z,83.06
2022-12-11T17:10:33.946Z,83.57
2022-12-11T17:13:36.479Z,83.12
2022-12-11T17:16:38.294Z,84.00
2022-12-11T17:19:40.060Z,83.96
2022-12-11T17:22:42.123Z,83.79
2022-12-11T17:25:45.445Z,83.66
2022-12-11T17:28:47.617Z,83.15
2022-12-11T17:31:56.482Z,83.21
2022-12-11T17:34:58.041Z,83.29
2022-12-11T17:37:59.837Z,83.86
2022-12-11T17:41:05.894Z,83.68
2022-12-11T17:44:07.432Z,83.94
2022-12-11T17:47:11.918Z,84.03
2022-12-11T17:50:13.732Z,84.31
2022-12-11T17:53:16.326Z,84.07
2022-12-11T17:56:19.553Z,84.26
2022-12-11T17:59:21.142Z,83.81
2022-12-11T18:02:22.766Z,84.65
2022-12-11T18:05:25.193Z,84.38
2022-12-11T18:08:30.104Z,84.51
2022-12-11T18:11:32.826Z,83.75
2022-12-11T18:14:34.578Z,84.48
2022-12-11T18:17:36.170Z,84.35
2022-12-11T18:20:38.693Z,84.56
2022-12-11T18:23:40.379Z,84.57
2022-12-11T18:26:47.892Z,84.42
2022-12-11T18:29:49.722Z,84.89
2022-12-11T18:32:51.570Z,84.33
2022-12-11T18:35:53.153Z,84.72
2022-12-11T18:38:54.838Z,84.49
2022-12-11T18:42:24.270Z,84.81
2022-12-11T18:45:18.030Z,84.81
2022-12-11T18:48:19.599Z,84.60
2022-12-11T18:51:23.857Z,84.73
2022-12-11T18:54:25.456Z,85.02
2022-12-11T18:57:27.029Z,84.68
2022-12-11T19:00:28.605Z,84.56
2022-12-11T19:03:30.224Z,84.41
2022-12-11T19:06:33.302Z,83.82
2022-12-11T19:09:42.427Z,83.90
2022-12-11T19:12:49.755Z,84.41
2022-12-11T19:15:51.448Z,83.74
2022-12-11T19:18:53.070Z,83.50
2022-12-11T19:21:54.844Z,84.01
2022-12-11T19:24:56.392Z,83.96
2022-12-11T19:27:58.106Z,83.66
2022-12-11T19:31:48.551Z,83.76
2022-12-11T19:47:18.356Z,84.64
2022-12-11T19:50:47.544Z,84.80
2022-12-11T19:55:09.032Z,85.12
2022-12-11T20:03:43.433Z,85.10
2022-12-11T20:07:25.024Z,85.39
2022-12-11T20:10:57.991Z,85.33
2022-12-11T20:14:56.159Z,85.75
2022-12-11T20:26:50.275Z,86.04
2022-12-11T20:34:35.092Z,85.72
2022-12-11T20:37:49.745Z,85.50
2022-12-11T20:41:08.624Z,85.72
2022-12-11T20:44:33.563Z,85.88
2022-12-11T20:47:51.844Z,85.56
2022-12-11T20:51:22.421Z,85.70
2022-12-11T20:55:05.995Z,86.07
2022-12-11T20:58:55.411Z,85.87
2022-12-11T21:02:14.052Z,86.00
2022-12-11T21:05:48.409Z,85.88
2022-12-11T21:13:12.248Z,86.50
2022-12-11T21:16:46.569Z,86.72
2022-12-11T21:24:24.338Z,86.91
2022-12-11T21:27:55.149Z,86.84
2022-12-11T21:31:38.712Z,86.91
2022-12-11T21:35:06.330Z,86.81
2022-12-11T21:38:28.565Z,87.33
2022-12-11T21:54:02.112Z,86.56
2022-12-11T21:57:29.887Z,86.02
2022-12-11T22:04:45.154Z,85.57
2022-12-11T22:12:11.256Z,85.82
2022-12-11T22:15:41.681Z,85.92
2022-12-11T22:18:57.301Z,86.11
2022-12-11T22:22:54.895Z,86.12
2022-12-11T22:26:00.797Z,86.34
2022-12-11T22:29:02.875Z,85.97
2022-12-11T22:32:05.074Z,85.71
2022-12-11T22:35:07.346Z,85.78
2022-12-11T22:38:09.357Z,86.21
2022-12-11T22:41:22.893Z,86.12
2022-12-11T22:44:54.989Z,86.18
2022-12-11T22:48:12.694Z,86.14
2022-12-11T22:51:32.915Z,86.07
2022-12-11T22:54:44.453Z,86.03
2022-12-11T23:02:10.328Z,86.32
2022-12-11T23:05:24.646Z,86.89
2022-12-11T23:08:31.658Z,86.21
2022-12-11T23:11:49.331Z,86.24
2022-12-11T23:15:03.143Z,86.10
2022-12-11T23:18:11.889Z,86.77
2022-12-11T23:21:18.850Z,86.20
2022-12-11T23:31:48.685Z,85.90
2022-12-11T23:35:07.162Z,86.12
2022-12-11T23:38:23.989Z,86.02
2022-12-11T23:41:39.232Z,86.18
2022-12-11T23:44:58.232Z,85.91
2022-12-11T23:48:03.068Z,85.96
2022-12-11T23:51:32.035Z,86.11
2022-12-11T23:54:49.158Z,85.96
2022-12-11T23:58:00.354Z,85.72
